Time;durP1;ratioP1;P1;durP2;ratioP2;P2;SDS_P1;SDS_P2;PMS_P1;PMS_P2;Temp;Humidity;BMP_temperature;BMP_pressure;BME280_temperature;BME280_humidity;BME280_pressure;Samples;Min_cycle;Max_cycle;Signal;HPM_P1;HPM_P2
2023/10/28 00:00:42;;;;;;;0.50;0.50;;;;;;;;;;5040899;28;20119;-76
2023/10/28 00:03:08;;;;;;;0.68;0.50;;;;;;;;;;5039838;28;20029;-76
2023/10/28 00:05:33;;;;;;;0.55;0.40;;;;;;;;;;5037462;28;20033;-76
2023/10/28 00:07:59;;;;;;;0.40;0.40;;;;;;;;;;5039037;28;20043;-77
2023/10/28 00:10:25;;;;;;;0.28;0.28;;;;;;;;;;5042866;28;20055;-76
2023/10/28 00:12:50;;;;;;;0.40;0.40;;;;;;;;;;5039823;28;20366;-76
2023/10/28 00:15:18;;;;;;;0.40;0.40;;;;;;;;;;5040048;28;20091;-76
2023/10/28 00:17:47;;;;;;;0.50;0.50;;;;;;;;;;5039235;28;20025;-76
2023/10/28 00:20:13;;;;;;;0.40;0.40;;;;;;;;;;5041034;28;20051;-76
2023/10/28 00:22:38;;;;;;;0.60;0.60;;;;;;;;;;5039368;28;20039;-76
2023/10/28 00:25:05;;;;;;;0.45;0.45;;;;;;;;;;5034886;28;20033;-76
2023/10/28 00:27:32;;;;;;;0.57;0.57;;;;;;;;;;5036551;28;20092;-76
2023/10/28 00:29:57;;;;;;;0.43;0.43;;;;;;;;;;5030409;28;20029;-76
2023/10/28 00:32:23;;;;;;;0.43;0.30;;;;;;;;;;5026391;28;20244;-76
2023/10/28 00:34:49;;;;;;;0.50;0.50;;;;;;;;;;5027534;28;20041;-76
2023/10/28 00:37:14;;;;;;;0.95;0.70;;;;;;;;;;5025632;28;20047;-76
2023/10/28 00:39:40;;;;;;;0.73;0.40;;;;;;;;;;5033343;28;20104;-77
2023/10/28 00:42:07;;;;;;;0.70;0.70;;;;;;;;;;5044591;28;20074;-76
2023/10/28 00:44:32;;;;;;;0.40;0.40;;;;;;;;;;5038270;28;20044;-76
2023/10/28 00:46:58;;;;;;;0.55;0.55;;;;;;;;;;5036549;28;20040;-76
2023/10/28 00:49:24;;;;;;;0.50;0.50;;;;;;;;;;5031120;28;20045;-77
2023/10/28 00:51:49;;;;;;;7.90;0.80;;;;;;;;;;5028387;28;20413;-76
2023/10/28 00:54:14;;;;;;;0.98;0.68;;;;;;;;;;5029814;28;20029;-76
2023/10/28 00:56:40;;;;;;;0.88;0.52;;;;;;;;;;5025284;28;20021;-77
2023/10/28 00:59:07;;;;;;;0.40;0.40;;;;;;;;;;5030287;28;20190;-77
2023/10/28 01:01:32;;;;;;;0.90;0.45;;;;;;;;;;5038602;28;20543;-75
2023/10/28 01:03:58;;;;;;;0.50;0.50;;;;;;;;;;5040602;28;20033;-76
2023/10/28 01:06:23;;;;;;;2.47;0.70;;;;;;;;;;5044032;28;20037;-76
2023/10/28 01:08:48;;;;;;;0.38;0.38;;;;;;;;;;5040377;28;20017;-76
2023/10/28 01:11:14;;;;;;;0.45;0.45;;;;;;;;;;5040413;28;20515;-77
2023/10/28 01:13:39;;;;;;;0.50;0.50;;;;;;;;;;5041113;28;20132;-76
2023/10/28 01:16:08;;;;;;;0.50;0.50;;;;;;;;;;5038591;28;20033;-76
2023/10/28 01:18:33;;;;;;;0.38;0.38;;;;;;;;;;5034558;28;20044;-76
2023/10/28 01:21:08;;;;;;;2.28;0.73;;;;;;;;;;5041184;28;20104;-77
2023/10/28 01:23:33;;;;;;;1.08;0.68;;;;;;;;;;5034819;28;20057;-76
2023/10/28 01:25:59;;;;;;;1.15;0.63;;;;;;;;;;5041930;28;20025;-77
2023/10/28 01:28:24;;;;;;;1.30;0.80;;;;;;;;;;5040740;28;20112;-76
2023/10/28 01:30:50;;;;;;;1.15;0.63;;;;;;;;;;5037778;28;20041;-76
2023/10/28 01:33:15;;;;;;;0.88;0.60;;;;;;;;;;5036042;28;20630;-77
2023/10/28 01:35:41;;;;;;;1.38;0.80;;;;;;;;;;5042179;28;20040;-77
2023/10/28 01:38:06;;;;;;;0.50;0.50;;;;;;;;;;5037999;28;20057;-76
2023/10/28 01:40:33;;;;;;;1.20;0.68;;;;;;;;;;5028948;28;20117;-77
2023/10/28 01:42:59;;;;;;;1.38;0.60;;;;;;;;;;5026803;28;20049;-77
2023/10/28 01:45:25;;;;;;;0.50;0.50;;;;;;;;;;5025155;28;20523;-77
2023/10/28 01:47:52;;;;;;;0.90;0.60;;;;;;;;;;5027623;28;20017;-77
2023/10/28 01:50:20;;;;;;;0.35;0.32;;;;;;;;;;5037172;28;20543;-76
2023/10/28 01:52:45;;;;;;;0.57;0.40;;;;;;;;;;5040959;28;20064;-76
2023/10/28 01:55:14;;;;;;;0.75;0.60;;;;;;;;;;5036946;28;20060;-77
2023/10/28 01:57:40;;;;;;;0.63;0.50;;;;;;;;;;5041058;28;20040;-77
2023/10/28 02:00:12;;;;;;;0.55;0.55;;;;;;;;;;5039038;28;20395;-76
2023/10/28 02:02:39;;;;;;;1.75;0.70;;;;;;;;;;5034623;28;20051;-77
2023/10/28 02:05:05;;;;;;;0.95;0.52;;;;;;;;;;5037999;28;20034;-77
2023/10/28 02:07:33;;;;;;;0.75;0.70;;;;;;;;;;5037089;28;20040;-76
2023/10/28 02:09:58;;;;;;;0.60;0.60;;;;;;;;;;5041436;28;20504;-76
2023/10/28 02:12:24;;;;;;;0.55;0.52;;;;;;;;;;5040066;28;20170;-77
2023/10/28 02:14:50;;;;;;;1.17;0.50;;;;;;;;;;5041360;28;20064;-76
2023/10/28 02:17:15;;;;;;;0.65;0.43;;;;;;;;;;5035520;28;20064;-76
2023/10/28 02:19:41;;;;;;;0.90;0.38;;;;;;;;;;5039470;28;20501;-76
2023/10/28 02:22:06;;;;;;;1.27;0.60;;;;;;;;;;5041137;28;20045;-76
2023/10/28 02:24:32;;;;;;;0.50;0.50;;;;;;;;;;5036689;28;20139;-76
2023/10/28 02:26:57;;;;;;;2.95;0.50;;;;;;;;;;5037391;28;20562;-77
2023/10/28 02:29:22;;;;;;;2.22;0.60;;;;;;;;;;5040620;28;20041;-77
2023/10/28 02:31:48;;;;;;;0.50;0.50;;;;;;;;;;5038208;28;20064;-77
2023/10/28 02:34:14;;;;;;;0.70;0.68;;;;;;;;;;5037723;28;20044;-77
2023/10/28 02:36:40;;;;;;;0.50;0.50;;;;;;;;;;5039668;28;20029;-77
2023/10/28 02:39:05;;;;;;;0.68;0.68;;;;;;;;;;5038394;28;20495;-77
2023/10/28 02:41:31;;;;;;;0.73;0.68;;;;;;;;;;5038697;28;20063;-77
2023/10/28 02:43:57;;;;;;;1.88;0.60;;;;;;;;;;5033972;28;20148;-76
2023/10/28 02:46:24;;;;;;;0.50;0.40;;;;;;;;;;5034928;28;20121;-77
2023/10/28 02:48:51;;;;;;;0.40;0.40;;;;;;;;;;5033727;28;20467;-77
2023/10/28 02:51:17;;;;;;;0.50;0.50;;;;;;;;;;5022255;28;20034;-76
2023/10/28 02:53:43;;;;;;;0.50;0.50;;;;;;;;;;5026389;28;20037;-76
2023/10/28 02:56:08;;;;;;;0.57;0.57;;;;;;;;;;5024900;28;20541;-77
2023/10/28 02:58:34;;;;;;;4.00;0.90;;;;;;;;;;5023442;28;20524;-76
2023/10/28 03:01:08;;;;;;;2.70;0.60;;;;;;;;;;5035688;28;20049;-77
2023/10/28 03:03:33;;;;;;;0.57;0.57;;;;;;;;;;5032447;28;20528;-77
2023/10/28 03:05:58;;;;;;;2.65;0.60;;;;;;;;;;5043203;28;20044;-77
2023/10/28 03:08:24;;;;;;;1.30;0.57;;;;;;;;;;5041026;28;20493;-76
2023/10/28 03:10:49;;;;;;;0.60;0.60;;;;;;;;;;5036554;28;20045;-76
2023/10/28 03:13:14;;;;;;;1.10;0.60;;;;;;;;;;5042037;28;20052;-77
2023/10/28 03:15:40;;;;;;;0.70;0.70;;;;;;;;;;5042695;28;20043;-77
2023/10/28 03:18:05;;;;;;;1.35;0.60;;;;;;;;;;5034473;28;20017;-77
2023/10/28 03:20:31;;;;;;;0.85;0.60;;;;;;;;;;5046091;28;20049;-77
2023/10/28 03:22:56;;;;;;;0.50;0.50;;;;;;;;;;5045627;28;20025;-76
2023/10/28 03:25:22;;;;;;;0.82;0.63;;;;;;;;;;5043064;28;20033;-77
2023/10/28 03:30:12;;;;;;;0.52;0.52;;;;;;;;;;5039014;23;20060;-81
2023/10/28 03:32:38;;;;;;;2.13;0.60;;;;;;;;;;5005857;28;20026;-81
2023/10/28 03:35:04;;;;;;;0.88;0.60;;;;;;;;;;5012461;28;20045;-81
2023/10/28 03:37:31;;;;;;;1.55;0.57;;;;;;;;;;5008410;28;20070;-82
2023/10/28 03:39:56;;;;;;;2.65;0.68;;;;;;;;;;5019311;28;20038;-82
2023/10/28 03:42:22;;;;;;;0.70;0.70;;;;;;;;;;5023298;28;21124;-82
2023/10/28 03:44:47;;;;;;;0.60;0.60;;;;;;;;;;5026669;28;20049;-79
2023/10/28 03:47:12;;;;;;;1.40;0.60;;;;;;;;;;5029827;28;20028;-79
2023/10/28 03:49:37;;;;;;;0.60;0.60;;;;;;;;;;5018842;28;20054;-79
2023/10/28 03:52:03;;;;;;;0.55;0.55;;;;;;;;;;5012389;28;20033;-80
2023/10/28 03:54:29;;;;;;;0.93;0.65;;;;;;;;;;5007659;28;20045;-79
2023/10/28 03:56:54;;;;;;;0.70;0.70;;;;;;;;;;5010164;28;20022;-81
2023/10/28 03:59:20;;;;;;;0.60;0.60;;;;;;;;;;5006113;28;20241;-79
2023/10/28 04:01:45;;;;;;;0.82;0.60;;;;;;;;;;5008556;28;20046;-79
2023/10/28 04:04:10;;;;;;;0.68;0.50;;;;;;;;;;5015926;28;20103;-83
2023/10/28 04:06:36;;;;;;;0.93;0.63;;;;;;;;;;5010291;28;20092;-81
2023/10/28 04:09:01;;;;;;;0.65;0.65;;;;;;;;;;5019283;28;20116;-82
2023/10/28 04:11:26;;;;;;;0.75;0.60;;;;;;;;;;5019320;28;20090;-82
2023/10/28 04:13:52;;;;;;;1.75;0.68;;;;;;;;;;5025315;28;20404;-81
2023/10/28 04:16:18;;;;;;;0.45;0.45;;;;;;;;;;5016834;28;20054;-81
2023/10/28 04:18:43;;;;;;;1.20;0.70;;;;;;;;;;5016169;28;20041;-83
2023/10/28 04:21:09;;;;;;;0.50;0.50;;;;;;;;;;5022307;28;20049;-79
2023/10/28 04:23:34;;;;;;;0.50;0.50;;;;;;;;;;5021481;28;20109;-81
2023/10/28 04:26:00;;;;;;;0.60;0.60;;;;;;;;;;5021405;28;20041;-77
2023/10/28 04:28:25;;;;;;;3.90;0.77;;;;;;;;;;5024676;28;20072;-78
2023/10/28 04:30:57;;;;;;;0.85;0.63;;;;;;;;;;5011320;28;20394;-79
2023/10/28 04:33:24;;;;;;;0.47;0.47;;;;;;;;;;5005749;28;20479;-78
2023/10/28 04:35:52;;;;;;;0.45;0.45;;;;;;;;;;5002419;28;20065;-78
2023/10/28 04:38:18;;;;;;;0.60;0.60;;;;;;;;;;5016450;28;20505;-82
2023/10/28 04:40:43;;;;;;;0.70;0.70;;;;;;;;;;5013152;28;20037;-79
2023/10/28 04:43:08;;;;;;;1.38;0.77;;;;;;;;;;5020118;28;20044;-78
2023/10/28 04:45:34;;;;;;;2.45;0.57;;;;;;;;;;5019904;28;20470;-82
2023/10/28 04:47:59;;;;;;;0.63;0.63;;;;;;;;;;5021455;28;20079;-81
2023/10/28 04:50:24;;;;;;;0.45;0.45;;;;;;;;;;5005388;28;20030;-82
2023/10/28 04:52:50;;;;;;;0.50;0.50;;;;;;;;;;5004294;28;20038;-82
2023/10/28 04:55:15;;;;;;;0.60;0.60;;;;;;;;;;5002735;28;20041;-82
2023/10/28 04:57:41;;;;;;;0.60;0.60;;;;;;;;;;5004471;28;20388;-81
2023/10/28 05:00:07;;;;;;;0.60;0.60;;;;;;;;;;5018973;28;20477;-81
2023/10/28 05:02:34;;;;;;;0.73;0.70;;;;;;;;;;5026271;28;20040;-81
2023/10/28 05:05:01;;;;;;;1.02;0.60;;;;;;;;;;5019095;28;20037;-80
2023/10/28 05:07:26;;;;;;;0.77;0.57;;;;;;;;;;5025691;28;20076;-79
2023/10/28 05:09:52;;;;;;;1.08;0.60;;;;;;;;;;5027050;28;20042;-79
2023/10/28 05:12:18;;;;;;;4.68;0.77;;;;;;;;;;5020486;28;20048;-79
2023/10/28 05:14:44;;;;;;;1.58;0.60;;;;;;;;;;5015616;28;20105;-81
2023/10/28 05:17:10;;;;;;;0.70;0.70;;;;;;;;;;5019648;28;20102;-82
2023/10/28 05:19:35;;;;;;;1.17;0.50;;;;;;;;;;5019165;28;20066;-81
2023/10/28 05:22:03;;;;;;;1.00;0.82;;;;;;;;;;5016976;28;20042;-80
2023/10/28 05:24:29;;;;;;;1.27;0.60;;;;;;;;;;5019276;28;20034;-82
2023/10/28 05:26:55;;;;;;;0.68;0.68;;;;;;;;;;5026146;28;20103;-81
2023/10/28 05:29:20;;;;;;;0.98;0.52;;;;;;;;;;5026782;28;20050;-82
2023/10/28 05:31:45;;;;;;;0.68;0.65;;;;;;;;;;5013826;28;20533;-82
2023/10/28 05:34:12;;;;;;;0.63;0.63;;;;;;;;;;5020687;28;20037;-80
2023/10/28 05:36:37;;;;;;;0.73;0.70;;;;;;;;;;5024413;28;20042;-80
2023/10/28 05:39:03;;;;;;;0.60;0.60;;;;;;;;;;5027302;28;20038;-79
2023/10/28 05:41:28;;;;;;;1.85;0.60;;;;;;;;;;5003620;28;20015;-78
2023/10/28 05:43:54;;;;;;;1.55;0.60;;;;;;;;;;5009008;28;20713;-80
2023/10/28 05:46:22;;;;;;;0.70;0.70;;;;;;;;;;5010223;28;20790;-80
2023/10/28 05:48:48;;;;;;;0.50;0.50;;;;;;;;;;5004156;28;20034;-77
2023/10/28 05:51:13;;;;;;;0.73;0.65;;;;;;;;;;5003579;28;20048;-78
2023/10/28 05:53:38;;;;;;;2.30;0.50;;;;;;;;;;5001999;28;20090;-79
2023/10/28 05:56:05;;;;;;;0.85;0.80;;;;;;;;;;5015865;28;20066;-80
2023/10/28 05:58:30;;;;;;;0.70;0.70;;;;;;;;;;5016375;28;20049;-80
2023/10/28 06:00:59;;;;;;;0.60;0.60;;;;;;;;;;5013071;28;20080;-81
2023/10/28 06:03:24;;;;;;;2.33;0.90;;;;;;;;;;5005291;28;20048;-81
2023/10/28 06:05:49;;;;;;;0.73;0.73;;;;;;;;;;5006704;28;20058;-81
2023/10/28 06:08:15;;;;;;;2.80;0.77;;;;;;;;;;5015291;28;20061;-84
2023/10/28 06:10:40;;;;;;;0.43;0.43;;;;;;;;;;5007478;28;20039;-81
2023/10/28 06:13:08;;;;;;;0.63;0.63;;;;;;;;;;5020246;28;20042;-80
2023/10/28 06:15:33;;;;;;;0.50;0.50;;;;;;;;;;5012508;28;20090;-78
2023/10/28 06:17:59;;;;;;;0.55;0.55;;;;;;;;;;5014357;28;20409;-79
2023/10/28 06:20:24;;;;;;;2.45;2.25;;;;;;;;;;5013254;28;20694;-80
2023/10/28 06:22:50;;;;;;;3.03;2.75;;;;;;;;;;5010804;28;20109;-80
2023/10/28 06:25:15;;;;;;;2.72;1.80;;;;;;;;;;5021469;28;20394;-80
2023/10/28 06:27:40;;;;;;;2.72;1.17;;;;;;;;;;5013030;28;20038;-81
2023/10/28 06:30:07;;;;;;;1.20;0.95;;;;;;;;;;5015881;28;20091;-80
2023/10/28 06:32:32;;;;;;;0.70;0.70;;;;;;;;;;5014719;28;20150;-80
2023/10/28 06:34:58;;;;;;;1.85;0.73;;;;;;;;;;5021256;28;20037;-80
2023/10/28 06:37:23;;;;;;;1.20;0.60;;;;;;;;;;5006938;28;20034;-80
2023/10/28 06:39:49;;;;;;;5.07;0.93;;;;;;;;;;5006400;28;20068;-79
2023/10/28 06:42:14;;;;;;;4.95;0.80;;;;;;;;;;5009548;28;20025;-82
2023/10/28 06:44:39;;;;;;;0.80;0.80;;;;;;;;;;5003387;28;20057;-79
2023/10/28 06:47:05;;;;;;;0.82;0.50;;;;;;;;;;5013289;28;20564;-80
2023/10/28 06:49:31;;;;;;;0.50;0.50;;;;;;;;;;5025378;28;20065;-78
2023/10/28 06:51:57;;;;;;;0.68;0.68;;;;;;;;;;5006068;28;20038;-79
2023/10/28 06:54:22;;;;;;;0.47;0.43;;;;;;;;;;5031903;28;20564;-79
2023/10/28 06:56:48;;;;;;;0.90;0.60;;;;;;;;;;5020326;28;20022;-80
2023/10/28 06:59:13;;;;;;;0.85;0.60;;;;;;;;;;5010801;28;20042;-79
2023/10/28 07:01:39;;;;;;;0.85;0.60;;;;;;;;;;5022135;28;20038;-81
2023/10/28 07:04:05;;;;;;;1.33;0.60;;;;;;;;;;4999465;28;20026;-81
2023/10/28 07:06:31;;;;;;;0.60;0.60;;;;;;;;;;5025353;28;20116;-81
2023/10/28 07:08:57;;;;;;;1.15;0.57;;;;;;;;;;5018580;28;20036;-78
2023/10/28 07:11:23;;;;;;;1.17;0.70;;;;;;;;;;5021098;28;20346;-78
2023/10/28 07:13:48;;;;;;;1.65;0.70;;;;;;;;;;5024476;28;20052;-77
2023/10/28 07:16:18;;;;;;;0.60;0.60;;;;;;;;;;5021188;28;20046;-78
2023/10/28 07:18:44;;;;;;;0.50;0.50;;;;;;;;;;5017339;28;20048;-79
2023/10/28 07:21:09;;;;;;;0.65;0.52;;;;;;;;;;4999890;28;20117;-79
2023/10/28 07:23:34;;;;;;;0.82;0.55;;;;;;;;;;5012032;28;20116;-79
2023/10/28 07:26:01;;;;;;;0.50;0.45;;;;;;;;;;5023832;28;20065;-81
2023/10/28 07:28:33;;;;;;;4.03;1.15;;;;;;;;;;5023279;28;20035;-83
2023/10/28 07:30:59;;;;;;;0.65;0.65;;;;;;;;;;5014928;28;20038;-82
2023/10/28 07:33:25;;;;;;;0.57;0.55;;;;;;;;;;5027492;28;20077;-80
2023/10/28 07:35:50;;;;;;;2.20;0.52;;;;;;;;;;5026727;28;20018;-80
2023/10/28 07:38:17;;;;;;;0.40;0.40;;;;;;;;;;5026232;28;20426;-79
2023/10/28 07:40:43;;;;;;;1.75;1.20;;;;;;;;;;5021147;28;20109;-79
2023/10/28 07:43:12;;;;;;;0.63;0.63;;;;;;;;;;5020208;28;20042;-79
2023/10/28 07:45:42;;;;;;;0.70;0.52;;;;;;;;;;5009056;28;20049;-81
2023/10/28 07:48:09;;;;;;;1.45;0.50;;;;;;;;;;5006106;28;20029;-84
2023/10/28 07:50:35;;;;;;;0.98;0.73;;;;;;;;;;5008389;28;20018;-82
2023/10/28 07:53:00;;;;;;;1.10;0.70;;;;;;;;;;5007854;28;20208;-82
2023/10/28 07:55:26;;;;;;;0.40;0.40;;;;;;;;;;5012495;28;20038;-81
2023/10/28 07:57:52;;;;;;;0.60;0.60;;;;;;;;;;5002495;28;20100;-82
2023/10/28 08:00:17;;;;;;;0.50;0.50;;;;;;;;;;5011409;28;20025;-80
2023/10/28 08:02:46;;;;;;;1.95;0.57;;;;;;;;;;5005906;28;20088;-83
2023/10/28 08:05:12;;;;;;;1.73;0.90;;;;;;;;;;5000823;28;20715;-80
2023/10/28 08:07:38;;;;;;;1.73;0.80;;;;;;;;;;4996988;28;20557;-82
2023/10/28 08:10:04;;;;;;;0.90;0.80;;;;;;;;;;4996677;28;20093;-81
2023/10/28 08:12:30;;;;;;;0.60;0.60;;;;;;;;;;4998448;28;20034;-82
2023/10/28 08:14:56;;;;;;;0.60;0.60;;;;;;;;;;4995585;28;20029;-80
2023/10/28 08:17:21;;;;;;;0.60;0.60;;;;;;;;;;5014258;28;20048;-82
2023/10/28 08:19:47;;;;;;;0.60;0.60;;;;;;;;;;5026786;28;20064;-84
2023/10/28 08:22:12;;;;;;;1.85;1.13;;;;;;;;;;5036534;28;20333;-82
2023/10/28 08:24:39;;;;;;;0.73;0.60;;;;;;;;;;5020678;28;20048;-79
2023/10/28 08:27:04;;;;;;;5.05;0.88;;;;;;;;;;5019458;28;20026;-78
2023/10/28 08:29:32;;;;;;;1.75;0.95;;;;;;;;;;5018537;28;20033;-78
2023/10/28 08:31:57;;;;;;;1.45;0.75;;;;;;;;;;5016995;28;20303;-81
2023/10/28 08:34:24;;;;;;;0.93;0.77;;;;;;;;;;5027269;28;20083;-81
2023/10/28 08:36:50;;;;;;;1.10;0.70;;;;;;;;;;5022385;28;20030;-80
2023/10/28 08:39:15;;;;;;;1.15;0.70;;;;;;;;;;5018237;28;20033;-80
2023/10/28 08:41:42;;;;;;;3.53;1.10;;;;;;;;;;5004343;28;20026;-80
2023/10/28 08:44:07;;;;;;;1.90;0.80;;;;;;;;;;5005236;28;20047;-80
2023/10/28 08:46:33;;;;;;;0.60;0.60;;;;;;;;;;5005983;28;20522;-80
2023/10/28 08:48:59;;;;;;;2.20;0.85;;;;;;;;;;5009891;28;20045;-81
2023/10/28 08:51:27;;;;;;;2.75;0.90;;;;;;;;;;5020556;28;20037;-81
2023/10/28 08:53:59;;;;;;;0.88;0.50;;;;;;;;;;5018317;28;20060;-78
2023/10/28 08:56:26;;;;;;;10.38;0.70;;;;;;;;;;5018980;28;20064;-81
2023/10/28 08:58:52;;;;;;;3.10;0.57;;;;;;;;;;5019677;28;20052;-81
2023/10/28 09:01:22;;;;;;;1.90;0.90;;;;;;;;;;5019348;28;20966;-79
2023/10/28 09:03:52;;;;;;;0.60;0.60;;;;;;;;;;5025345;28;20379;-80
2023/10/28 09:06:19;;;;;;;1.40;0.88;;;;;;;;;;5025601;28;20030;-80
2023/10/28 09:08:44;;;;;;;0.75;0.55;;;;;;;;;;5024154;28;20037;-80
2023/10/28 09:11:10;;;;;;;0.70;0.70;;;;;;;;;;5019126;28;20034;-80
2023/10/28 09:13:36;;;;;;;0.75;0.40;;;;;;;;;;5021272;28;20159;-81
2023/10/28 09:16:27;;;;;;;2.13;0.95;;;;;;;;;;5018087;28;20450;-80
2023/10/28 09:18:52;;;;;;;0.65;0.52;;;;;;;;;;5019803;28;20043;-80
2023/10/28 09:21:19;;;;;;;0.60;0.60;;;;;;;;;;5014055;28;20018;-78
2023/10/28 09:23:44;;;;;;;0.75;0.75;;;;;;;;;;5015425;28;20537;-77
2023/10/28 09:26:09;;;;;;;3.35;0.75;;;;;;;;;;5014665;28;20042;-78
2023/10/28 09:28:42;;;;;;;2.67;1.00;;;;;;;;;;5014192;28;20037;-78
2023/10/28 09:31:07;;;;;;;1.73;0.63;;;;;;;;;;5012820;28;20026;-79
2023/10/28 09:33:32;;;;;;;2.25;0.82;;;;;;;;;;5007431;28;20316;-79
2023/10/28 09:35:59;;;;;;;2.17;0.80;;;;;;;;;;5017566;28;20409;-80
2023/10/28 09:38:24;;;;;;;0.65;0.65;;;;;;;;;;5016510;28;20042;-77
2023/10/28 09:40:50;;;;;;;2.72;0.70;;;;;;;;;;5016410;28;20038;-79
2023/10/28 09:43:16;;;;;;;1.17;0.65;;;;;;;;;;5011447;28;20030;-79
2023/10/28 09:45:49;;;;;;;6.50;1.02;;;;;;;;;;4995069;28;20042;-79
2023/10/28 09:48:17;;;;;;;0.93;0.70;;;;;;;;;;5022085;28;20021;-79
2023/10/28 09:50:52;;;;;;;0.40;0.40;;;;;;;;;;5031730;28;20132;-78
2023/10/28 09:53:23;;;;;;;0.82;0.50;;;;;;;;;;5030101;28;20053;-79
2023/10/28 09:55:54;;;;;;;0.98;0.60;;;;;;;;;;5020075;28;20375;-78
2023/10/28 09:58:27;;;;;;;0.73;0.40;;;;;;;;;;5026321;28;20085;-78
2023/10/28 10:01:01;;;;;;;1.87;0.80;;;;;;;;;;5021441;28;21374;-78
2023/10/28 10:03:36;;;;;;;1.25;0.80;;;;;;;;;;5025013;28;20041;-79
2023/10/28 10:06:02;;;;;;;0.75;0.60;;;;;;;;;;5030859;28;20030;-78
2023/10/28 10:08:27;;;;;;;2.42;0.70;;;;;;;;;;5026886;28;20072;-79
2023/10/28 10:10:56;;;;;;;0.90;0.55;;;;;;;;;;5026006;28;20632;-80
2023/10/28 10:13:22;;;;;;;1.35;0.63;;;;;;;;;;5015699;28;20073;-81
2023/10/28 10:16:03;;;;;;;0.50;0.50;;;;;;;;;;5020043;28;20079;-80
2023/10/28 10:18:30;;;;;;;0.95;0.50;;;;;;;;;;5017252;28;20124;-79
2023/10/28 10:21:07;;;;;;;0.95;0.55;;;;;;;;;;5026684;28;20029;-78
2023/10/28 10:24:02;;;;;;;0.80;0.60;;;;;;;;;;5031054;28;20053;-81
2023/10/28 10:26:31;;;;;;;0.73;0.60;;;;;;;;;;5023747;28;20029;-80
2023/10/28 10:29:02;;;;;;;1.40;0.60;;;;;;;;;;5019052;28;20099;-80
2023/10/28 10:31:32;;;;;;;0.95;0.60;;;;;;;;;;5015689;28;20116;-80
2023/10/28 10:34:07;;;;;;;1.25;0.52;;;;;;;;;;5025545;28;20052;-79
2023/10/28 10:36:40;;;;;;;0.88;0.60;;;;;;;;;;5019248;28;20107;-79
2023/10/28 10:39:16;;;;;;;0.60;0.60;;;;;;;;;;5020008;28;20040;-80
2023/10/28 10:41:52;;;;;;;0.82;0.50;;;;;;;;;;5025354;28;20018;-80
2023/10/28 10:44:36;;;;;;;4.68;1.00;;;;;;;;;;5018703;28;20127;-80
2023/10/28 10:47:02;;;;;;;0.40;0.40;;;;;;;;;;5019011;28;20519;-79
2023/10/28 10:49:30;;;;;;;2.15;0.82;;;;;;;;;;5014389;28;20117;-80
2023/10/28 10:51:56;;;;;;;4.45;0.80;;;;;;;;;;5002465;28;20030;-80
2023/10/28 10:54:31;;;;;;;0.55;0.50;;;;;;;;;;5005330;28;20050;-79
2023/10/28 10:56:58;;;;;;;7.95;0.80;;;;;;;;;;5004849;28;20109;-79
2023/10/28 10:59:24;;;;;;;1.50;0.57;;;;;;;;;;5038393;23;20532;-77
2023/10/28 11:01:50;;;;;;;1.08;0.60;;;;;;;;;;5035242;28;20062;-77
2023/10/28 11:04:15;;;;;;;3.65;1.10;;;;;;;;;;5041919;28;20048;-77
2023/10/28 11:06:41;;;;;;;5.75;0.95;;;;;;;;;;5037737;28;20381;-77
2023/10/28 11:09:06;;;;;;;1.58;0.77;;;;;;;;;;5033035;28;20032;-77
2023/10/28 11:11:35;;;;;;;2.55;0.95;;;;;;;;;;5041122;28;20529;-77
2023/10/28 11:14:02;;;;;;;1.02;0.60;;;;;;;;;;5040282;28;20361;-77
2023/10/28 11:16:28;;;;;;;3.25;1.02;;;;;;;;;;5040588;28;20040;-77
2023/10/28 11:18:54;;;;;;;2.38;1.00;;;;;;;;;;5032503;28;20117;-77
2023/10/28 11:21:23;;;;;;;1.30;0.77;;;;;;;;;;5037795;28;20033;-77
2023/10/28 11:23:49;;;;;;;2.88;0.90;;;;;;;;;;5027774;28;20192;-77
2023/10/28 11:26:22;;;;;;;2.92;0.70;;;;;;;;;;5009640;28;20045;-77
2023/10/28 11:28:48;;;;;;;4.03;0.93;;;;;;;;;;5017410;28;20033;-77
2023/10/28 11:31:13;;;;;;;2.88;0.82;;;;;;;;;;5027786;28;20045;-78
2023/10/28 11:33:41;;;;;;;1.75;0.90;;;;;;;;;;5030270;28;20033;-76
2023/10/28 11:36:07;;;;;;;1.00;0.63;;;;;;;;;;5039580;28;20075;-76
2023/10/28 11:38:34;;;;;;;2.67;0.80;;;;;;;;;;5033189;28;20060;-76
2023/10/28 11:41:07;;;;;;;0.85;0.70;;;;;;;;;;5033815;28;20538;-76
2023/10/28 11:43:36;;;;;;;0.98;0.60;;;;;;;;;;5034514;28;20040;-76
2023/10/28 11:46:02;;;;;;;2.13;0.93;;;;;;;;;;5026434;28;20544;-76
2023/10/28 11:48:27;;;;;;;1.92;0.95;;;;;;;;;;5032596;28;20503;-76
2023/10/28 11:50:56;;;;;;;2.15;1.10;;;;;;;;;;5021883;28;20944;-76
2023/10/28 11:53:28;;;;;;;0.57;0.57;;;;;;;;;;5017493;28;20041;-76
2023/10/28 11:55:54;;;;;;;0.85;0.70;;;;;;;;;;5018708;28;20029;-76
2023/10/28 11:58:22;;;;;;;1.13;0.63;;;;;;;;;;5012604;28;20037;-76
2023/10/28 12:00:52;;;;;;;0.98;0.88;;;;;;;;;;5023818;28;20838;-76
2023/10/28 12:03:18;;;;;;;1.20;0.77;;;;;;;;;;5021129;28;20051;-76
2023/10/28 12:05:44;;;;;;;1.42;0.80;;;;;;;;;;5016460;28;20054;-76
2023/10/28 12:08:11;;;;;;;4.72;0.70;;;;;;;;;;5017855;28;20055;-76
2023/10/28 12:10:43;;;;;;;4.18;0.80;;;;;;;;;;5038995;28;20246;-76
2023/10/28 12:13:08;;;;;;;6.53;1.02;;;;;;;;;;5038881;28;20052;-76
2023/10/28 12:15:33;;;;;;;5.30;0.77;;;;;;;;;;5035968;28;20036;-75
2023/10/28 12:17:59;;;;;;;1.75;0.80;;;;;;;;;;5044802;28;20049;-76
2023/10/28 12:20:24;;;;;;;0.70;0.60;;;;;;;;;;5044061;28;20045;-76
2023/10/28 12:22:49;;;;;;;2.85;0.80;;;;;;;;;;5037924;28;20048;-76
2023/10/28 12:25:15;;;;;;;3.22;0.65;;;;;;;;;;5039663;28;20041;-76
2023/10/28 12:27:42;;;;;;;1.17;0.75;;;;;;;;;;5037812;28;20037;-76
2023/10/28 12:30:08;;;;;;;1.58;0.77;;;;;;;;;;5028419;28;20020;-76
2023/10/28 12:32:34;;;;;;;0.60;0.60;;;;;;;;;;5015985;28;20030;-76
2023/10/28 12:34:59;;;;;;;1.85;0.90;;;;;;;;;;5015650;28;20045;-76
2023/10/28 12:37:26;;;;;;;2.17;1.20;;;;;;;;;;5013342;28;20038;-76
2023/10/28 12:39:52;;;;;;;3.00;0.95;;;;;;;;;;5030477;28;20159;-76
2023/10/28 12:42:17;;;;;;;1.95;1.05;;;;;;;;;;5039482;28;20119;-77
2023/10/28 12:44:42;;;;;;;1.08;0.93;;;;;;;;;;5042369;28;20028;-77
2023/10/28 12:47:08;;;;;;;4.03;0.80;;;;;;;;;;5037117;28;20075;-77
2023/10/28 12:49:33;;;;;;;2.58;0.90;;;;;;;;;;5043375;28;20036;-77
2023/10/28 12:51:59;;;;;;;1.17;0.93;;;;;;;;;;5040936;28;20063;-76
2023/10/28 12:54:24;;;;;;;4.43;1.05;;;;;;;;;;5040978;28;20052;-76
2023/10/28 12:56:52;;;;;;;2.40;1.10;;;;;;;;;;5039931;28;20033;-76
2023/10/28 12:59:18;;;;;;;1.20;0.90;;;;;;;;;;5031869;28;20042;-76
2023/10/28 13:01:45;;;;;;;1.35;0.73;;;;;;;;;;5017791;28;20054;-76
2023/10/28 13:04:10;;;;;;;1.17;0.70;;;;;;;;;;5016284;28;20544;-76
2023/10/28 13:06:36;;;;;;;1.80;0.70;;;;;;;;;;5014356;28;20026;-76
2023/10/28 13:09:05;;;;;;;4.75;1.20;;;;;;;;;;5014734;28;20029;-76
2023/10/28 13:11:30;;;;;;;0.90;0.82;;;;;;;;;;5039485;28;20083;-76
2023/10/28 13:13:55;;;;;;;2.25;0.82;;;;;;;;;;5040101;28;20504;-77
2023/10/28 13:16:20;;;;;;;1.25;0.88;;;;;;;;;;5040371;28;20075;-77
2023/10/28 13:18:46;;;;;;;1.30;1.00;;;;;;;;;;5053970;28;20037;-77
2023/10/28 13:21:13;;;;;;;5.05;1.00;;;;;;;;;;5043185;28;20083;-76
2023/10/28 13:23:38;;;;;;;1.20;0.80;;;;;;;;;;5038188;28;20078;-76
2023/10/28 13:26:09;;;;;;;2.70;1.00;;;;;;;;;;5039464;28;20037;-76
2023/10/28 13:28:35;;;;;;;1.88;1.08;;;;;;;;;;5052650;28;20394;-77
2023/10/28 13:31:01;;;;;;;1.67;1.15;;;;;;;;;;5017425;28;20042;-76
2023/10/28 13:33:26;;;;;;;2.45;1.00;;;;;;;;;;5014806;28;20046;-77
2023/10/28 13:35:51;;;;;;;1.67;0.90;;;;;;;;;;5012471;28;20076;-77
2023/10/28 13:38:17;;;;;;;2.78;1.00;;;;;;;;;;5010311;28;20072;-76
2023/10/28 13:40:42;;;;;;;1.75;0.95;;;;;;;;;;5032598;28;20112;-77
2023/10/28 13:43:07;;;;;;;6.88;1.00;;;;;;;;;;5038708;28;20087;-76
2023/10/28 13:45:33;;;;;;;3.75;1.30;;;;;;;;;;5038865;28;20028;-77
2023/10/28 13:47:58;;;;;;;2.78;1.50;;;;;;;;;;5036960;28;20128;-77
2023/10/28 13:50:26;;;;;;;2.15;1.10;;;;;;;;;;5041704;28;20045;-77
2023/10/28 13:52:52;;;;;;;2.10;1.17;;;;;;;;;;5037853;28;20463;-76
2023/10/28 13:55:18;;;;;;;3.30;1.50;;;;;;;;;;5039579;28;20056;-77
2023/10/28 13:57:43;;;;;;;1.67;0.90;;;;;;;;;;5035604;28;20040;-77
2023/10/28 14:00:13;;;;;;;3.45;1.48;;;;;;;;;;5029039;28;20052;-77
2023/10/28 14:02:38;;;;;;;4.95;1.20;;;;;;;;;;5015229;28;20021;-78
2023/10/28 14:05:05;;;;;;;1.60;1.15;;;;;;;;;;5015397;28;20091;-77
2023/10/28 14:07:31;;;;;;;5.95;2.72;;;;;;;;;;5025564;28;20251;-77
2023/10/28 14:09:56;;;;;;;8.32;3.83;;;;;;;;;;5029758;28;20061;-77
2023/10/28 14:12:23;;;;;;;8.57;4.15;;;;;;;;;;5038000;28;20171;-77
2023/10/28 14:14:52;;;;;;;7.53;3.30;;;;;;;;;;5042310;28;20453;-77
2023/10/28 14:17:17;;;;;;;6.95;1.63;;;;;;;;;;5039930;28;20094;-76
2023/10/28 14:19:43;;;;;;;2.22;1.08;;;;;;;;;;5039504;28;20036;-76
2023/10/28 14:22:09;;;;;;;4.22;1.60;;;;;;;;;;5034335;28;20072;-76
2023/10/28 14:24:34;;;;;;;3.17;1.77;;;;;;;;;;5036566;28;20033;-76
2023/10/28 14:27:00;;;;;;;5.22;2.10;;;;;;;;;;5041512;28;20126;-75
2023/10/28 14:29:25;;;;;;;4.43;2.40;;;;;;;;;;5040644;28;20032;-76
2023/10/28 14:31:50;;;;;;;6.63;1.85;;;;;;;;;;5034933;28;20045;-76
2023/10/28 14:34:16;;;;;;;4.65;2.40;;;;;;;;;;5043812;28;20152;-78
2023/10/28 14:36:42;;;;;;;6.25;2.63;;;;;;;;;;5045323;28;20040;-78
2023/10/28 14:39:07;;;;;;;7.35;3.10;;;;;;;;;;5043677;28;20028;-78
2023/10/28 14:41:35;;;;;;;5.72;2.80;;;;;;;;;;5044476;28;20033;-78